Nearby METAR Reports

 

KAEG - Double Eagle Ii, New Mexico, USA
Distance from station: WNW 2mi, 15km
Updated: 09/21/2018 8:47am
Clear
Clear
 Wind from N
Wind: N 12 mph , 19 km/h
Temperature: 64°F , 18°C
Dew Point: 43°F , 6°C
Humidity: 46%
Barometer: 30.28 inHg , 1025.4 hPa
Clouds: Clear
Visibility: 10 miles , 16 km
2018/09/21 14:47 KAEG 211447Z 36010KT 10SM CLR 18/06 A3028
KABQ - Albuquerque, New Mexico, USA
Distance from station: SE 4mi, 5km
Updated: 09/21/2018 8:52am
Few Clouds
Few Clouds
 Wind from NW
Wind: NW 10 mph , 17 km/h
Temperature: 63°F , 17°C
Dew Point: 45°F , 7°C
Humidity: 52%
Barometer: 30.25 inHg , 1024.4 hPa
Clouds: Few Clouds
Visibility: 10 miles , 16 km
Cloud details: Few Clouds 4000 ft
2018/09/21 14:52 KABQ 211452Z 32009KT 10SM FEW040 17/07 A3025 RMK AO2 SLP181 T01720067 53020
 
KE80 - Belen, New Mexico, USA
Distance from station: SSW 32mi, 51km
Updated: 09/21/2018 9:35am
Clear
Clear
 Wind from WNW
Wind: WNW 5 mph , 7 km/h
Temperature: 66°F , 19°C
Dew Point: 43°F , 6°C
Humidity: 43%
Barometer: 30.27 inHg , 1025.1 hPa
Clouds: Clear
Visibility: 10 miles , 16 km
2018/09/21 15:35 KE80 211535Z AUTO 30004KT 10SM CLR 19/06 A3027 RMK AO2 T01850061
K0E0 - Moriarty, New Mexico, USA
Distance from station: E 37mi, 60km
Updated: 09/21/2018 9:35am
Clear
Clear
 Wind from ENE
Wind: ENE 24 mph , 39 km/h, Gust: 28 mph , 44 km/h
Temperature: 68°F , 20°C
Dew Point: 52°F , 11°C
Humidity: 56%
Barometer: 30.34 inHg , 1027.4 hPa
Clouds: Clear
Visibility: 10 miles , 16 km
2018/09/21 15:35 K0E0 211535Z AUTO 06021G24KT 10SM CLR 20/11 A3034 RMK AO2 T01990109
 
KSAF - Santa Fe, New Mexico, USA
Distance from station: NE 48mi, 77km
Updated: 09/21/2018 8:53am
Clear
Clear
 Wind from N
Wind: N 12 mph , 19 km/h
Temperature: 59°F , 15°C
Dew Point: 45°F , 7°C
Humidity: 59%
Barometer: 30.31 inHg , 1026.4 hPa
Clouds: Clear
Visibility: 10 miles , 16 km
2018/09/21 14:53 KSAF 211453Z 36010KT 10SM CLR 15/07 A3031 RMK AO2 SLP189 T01500067 51020